LQSALGKL

Guest
Details From LQSA - Sarajevo
To LGKL - KALAMATA
Flight Number -
Tags generated
Created
Modified
Stats Distance 441 nm / 816 km
Max Altitude 35,000 ft / 10,668 m
Waypoints 8
Social Downloads 0
Likes 0
Share VATSIM

Download

Looking for another format? Having issues loading an existing format? Contact us
Advertisement - Login to hide

Notes

Basic altitude profile: - Ascent Rate: 2500ft/min - Ascent Speed: 250kts - Cruise Altitude: 35000ft - Cruise Speed: 420kts - Descent Rate: 1500ft/min - Descent Speed: 250kts Options: - Use NATs: yes - Use PACOTS: yes - Use low airways: yes - Use high airways: yes

Route

LQSA RETRA UW33 YNN UV62 GARTA UV60 ARA LGKL

ID Type Via Altitude Latitude Longitude Leg Dist Tot Dist Heading (true) Name
O LQSA APT - 0 ft / 0 m 43.82460˚ 18.33150˚ - 0 nm - Sarajevo
RETRA FIX - 35,000 ft / 10,668 m 42.22781˚ 19.33522˚ 105 nm 105 nm 155° / 156° -
TR NDB UW33 (AWY-HI) 35,000 ft / 10,668 m 41.46323˚ 19.71414˚ 48 nm 154 nm 160° / 160° TIRANA NDB
DIMIS FIX UW33 (AWY-HI) 35,000 ft / 10,668 m 40.07250˚ 20.59472˚ 92 nm 247 nm 154° / 155° -
YNN VOR UW33 (AWY-HI) 35,000 ft / 10,668 m 39.70139˚ 20.82000˚ 24 nm 271 nm 155° / 155° IOANNINA VOR-DME
GARTA FIX UV62 (AWY-HI) 25,900 ft / 7,894 m 38.98500˚ 20.96833˚ 43 nm 315 nm 171° / 171° -
ARA VOR UV60 (AWY-HI) 23,500 ft / 7,163 m 38.10972˚ 21.42528˚ 56 nm 372 nm 158° / 158° ARAXOS VOR-DME
O LGKL APT - 0 ft / 0 m 37.06832˚ 22.02552˚ 68 nm 440 nm 155° / 156° KALAMATA

Altitude Profile

Advertisement - Login to hide

Weather


0- 5 10 15 20 25 30 35+ Temperature / ° C

Clouds and Precipitation
Forecast for 2017-12-15 12:00 UTC. Updated an hour ago

Ground ~20,000 ft ~40,000 ft Winds

LQSA

Details ICAO LQSA (SJJ)
Name Sarajevo
Region Bosnia and Herzegovinia
Timezone Europe/Sarajevo (UTC+1.0)
Stats Elevation 1,708 ft / 521 m (AMSL)
Location 43.824597° 18.331500°
Runways 1
Magnetic Variation 4.222° E

METAR

LQSA 151230Z 12015KT 9999 -RA SCT030 BKN050 13/06 Q1001 NOSIG

Decode

TAF

Not found

Departure Runways

ID Width Length Bearing (true) Bearing (mag) Surface Threshold Offset Overrun Length
12 150 ft / 46 m 8,519 ft / 2,597 m 117.41° 113.19° Asphalt 333 ft / 102 m 0 ft / 0 m
30 150 ft / 46 m 8,519 ft / 2,597 m 297.43° 293.21° Asphalt 666 ft / 203 m 0 ft / 0 m

LGKL

Details ICAO LGKL (KLX)
Name KALAMATA
Region Greece
Timezone Europe/Athens (UTC+2.0)
Stats Elevation 26 ft / 8 m (AMSL)
Location 37.068320° 22.025523°
Runways 1
Magnetic Variation 4.162° E

METAR

LGKL 151220Z 00000KT 9999 FEW030 SCT080 18/07 Q1017

Decode

TAF

Not found

Destination Runways

ID Width Length Bearing (true) Bearing (mag) Surface Threshold Offset Overrun Length
17R 148 ft / 45 m 9,274 ft / 2,827 m 169.51° 165.35° Asphalt 240 ft / 73 m 320 ft / 98 m
35L 148 ft / 45 m 9,274 ft / 2,827 m 349.51° 345.35° Asphalt 250 ft / 76 m 310 ft / 94 m